createdAt,value
2019-03-10T05:30:38.075Z,6.90
2019-03-10T05:33:06.995Z,6.90
2019-03-10T05:35:35.902Z,6.90
2019-03-10T05:38:04.917Z,6.80
2019-03-10T05:40:33.939Z,6.80
2019-03-10T05:43:02.878Z,6.80
2019-03-10T05:45:31.930Z,6.70
2019-03-10T05:48:00.836Z,6.70
2019-03-10T05:50:29.849Z,6.70
2019-03-10T05:53:00.653Z,6.70
2019-03-10T05:55:29.659Z,6.80
2019-03-10T05:57:58.685Z,6.80
2019-03-10T06:00:27.689Z,6.80
2019-03-10T06:02:56.681Z,6.80
2019-03-10T06:05:25.642Z,6.80
2019-03-10T06:07:54.843Z,6.80
2019-03-10T06:10:23.908Z,6.80
2019-03-10T06:12:52.918Z,6.70
2019-03-10T06:15:21.837Z,6.80
2019-03-10T06:17:50.766Z,6.80
2019-03-10T06:20:19.706Z,6.70
2019-03-10T06:22:48.610Z,6.70
2019-03-10T06:25:17.623Z,6.70
2019-03-10T06:27:46.631Z,6.70
2019-03-10T06:30:15.711Z,6.70
2019-03-10T06:32:44.625Z,6.70
2019-03-10T06:35:13.617Z,6.80
2019-03-10T06:37:42.678Z,6.80
2019-03-10T06:40:11.734Z,6.90
2019-03-10T06:42:40.726Z,6.90
2019-03-10T06:45:09.771Z,6.90
2019-03-10T06:47:38.760Z,6.90
2019-03-10T06:50:09.019Z,7.00
2019-03-10T06:52:38.024Z,7.00
2019-03-10T06:55:07.368Z,7.00
2019-03-10T06:57:36.430Z,7.00
2019-03-10T07:00:05.891Z,7.10
2019-03-10T07:02:34.838Z,7.10
2019-03-10T07:05:04.172Z,7.10
2019-03-10T07:07:33.106Z,7.10
2019-03-10T07:10:02.040Z,7.20
2019-03-10T07:12:31.118Z,7.20
2019-03-10T07:15:00.082Z,7.30
2019-03-10T07:17:29.100Z,7.30
2019-03-10T07:19:58.131Z,7.40
2019-03-10T07:22:27.147Z,7.40
2019-03-10T07:24:56.072Z,7.40
2019-03-10T07:27:27.507Z,7.50
2019-03-10T07:30:05.170Z,7.50
2019-03-10T07:33:02.577Z,7.50
2019-03-10T07:35:48.690Z,7.50
2019-03-10T07:38:25.674Z,7.50
2019-03-10T07:41:12.316Z,7.60
2019-03-10T07:43:59.615Z,7.70
2019-03-10T07:46:50.686Z,7.60
2019-03-10T07:49:27.946Z,7.70
2019-03-10T07:52:24.866Z,7.80
2019-03-10T07:55:27.988Z,7.80
2019-03-10T07:58:16.158Z,8.00
2019-03-10T08:00:52.843Z,8.10
2019-03-10T08:03:39.479Z,8.20
2019-03-10T08:06:27.587Z,8.30
2019-03-10T08:09:15.679Z,8.40
2019-03-10T08:12:12.901Z,8.50
2019-03-10T08:14:53.543Z,8.70
2019-03-10T08:17:28.130Z,9.00
2019-03-10T08:20:08.394Z,9.20
2019-03-10T08:22:59.485Z,9.40
2019-03-10T08:25:44.995Z,9.50
2019-03-10T08:28:31.495Z,9.70
2019-03-10T08:31:13.091Z,9.90
2019-03-10T08:34:07.331Z,10.00
2019-03-10T08:36:58.464Z,10.10
2019-03-10T08:39:45.960Z,10.20
2019-03-10T08:42:32.764Z,10.40
2019-03-10T08:45:11.675Z,10.50
2019-03-10T08:47:46.707Z,10.60
2019-03-10T08:50:36.045Z,10.70
2019-03-10T08:53:13.714Z,10.70
2019-03-10T08:56:00.450Z,10.80
2019-03-10T08:58:45.665Z,10.80
2019-03-10T09:01:31.258Z,10.80
2019-03-10T09:04:08.835Z,10.90
2019-03-10T09:06:44.816Z,10.90
2019-03-10T09:09:47.947Z,11.00
2019-03-10T09:12:26.415Z,11.00
2019-03-10T09:15:12.847Z,11.00
2019-03-10T09:17:52.692Z,11.00
2019-03-10T09:20:37.677Z,11.00
2019-03-10T09:23:28.779Z,11.00
2019-03-10T09:26:15.698Z,11.10
2019-03-10T09:29:01.375Z,10.90
2019-03-10T09:31:46.339Z,10.90
2019-03-10T09:34:37.194Z,10.80
2019-03-10T09:37:26.840Z,10.80
2019-03-10T09:40:23.850Z,10.80
2019-03-10T09:43:14.563Z,10.90
2019-03-10T09:45:53.080Z,10.80
2019-03-10T09:48:41.142Z,10.90
2019-03-10T09:51:23.215Z,10.80
2019-03-10T09:54:18.070Z,10.70
2019-03-10T09:57:06.588Z,10.80
2019-03-10T09:59:53.350Z,10.80
2019-03-10T10:02:40.369Z,10.80
2019-03-10T10:05:24.316Z,10.80
2019-03-10T10:08:04.255Z,10.70
2019-03-10T10:11:01.523Z,10.60
2019-03-10T10:13:38.958Z,10.50
2019-03-10T10:16:21.963Z,10.30
2019-03-10T10:19:25.074Z,10.30
2019-03-10T10:22:13.140Z,10.20
2019-03-10T10:25:08.893Z,10.20
2019-03-10T10:27:57.032Z,10.20
2019-03-10T10:30:43.695Z,10.10
2019-03-10T10:33:33.062Z,10.20
2019-03-10T10:36:24.011Z,10.20
2019-03-10T10:39:18.426Z,10.20
2019-03-10T10:42:04.959Z,10.20
2019-03-10T10:44:55.942Z,10.20
2019-03-10T10:47:42.718Z,10.10
2019-03-10T10:50:25.109Z,10.10
2019-03-10T10:53:09.736Z,10.00
2019-03-10T10:56:01.034Z,10.00
2019-03-10T10:59:04.318Z,9.90
2019-03-10T11:01:44.746Z,9.90
2019-03-10T11:04:20.567Z,9.90
2019-03-10T11:07:04.650Z,10.00
2019-03-10T11:09:52.629Z,10.10
2019-03-10T11:12:31.130Z,10.10
2019-03-10T11:15:07.978Z,10.10
2019-03-10T11:17:57.307Z,10.20
2019-03-10T11:20:38.791Z,10.30
2019-03-10T11:23:15.104Z,10.40
2019-03-10T11:25:59.156Z,10.40
2019-03-10T11:28:44.135Z,10.30
2019-03-10T11:31:37.423Z,10.30
2019-03-10T11:34:25.445Z,10.30
2019-03-10T11:37:15.479Z,10.30
2019-03-10T11:39:50.648Z,10.30
2019-03-10T11:42:41.628Z,10.30
2019-03-10T11:45:35.641Z,10.30
2019-03-10T11:48:16.025Z,10.30
2019-03-10T11:51:11.401Z,10.50
2019-03-10T11:54:05.462Z,10.60
2019-03-10T11:57:11.645Z,10.70
2019-03-10T12:00:02.674Z,10.90
2019-03-10T12:02:50.996Z,11.00
2019-03-10T12:05:32.552Z,10.90
2019-03-10T12:08:25.295Z,10.90
2019-03-10T12:10:54.361Z,10.90
2019-03-10T12:13:23.354Z,10.90
2019-03-10T12:15:52.904Z,11.00
2019-03-10T12:18:21.990Z,11.00
2019-03-10T12:20:51.103Z,11.00
2019-03-10T12:23:20.107Z,11.00
2019-03-10T12:25:49.406Z,11.10
2019-03-10T12:28:18.405Z,11.30
2019-03-10T12:30:47.527Z,11.70
2019-03-10T12:33:16.487Z,12.20
2019-03-10T12:35:45.496Z,12.50
2019-03-10T12:38:14.715Z,13.00
2019-03-10T12:40:43.910Z,13.50
2019-03-10T12:43:13.071Z,13.70
2019-03-10T12:45:42.111Z,13.40
2019-03-10T12:48:11.612Z,13.30
2019-03-10T12:50:40.924Z,13.80
2019-03-10T12:53:10.538Z,14.20
2019-03-10T12:55:39.674Z,13.90
2019-03-10T12:58:09.395Z,13.70
2019-03-10T13:00:38.501Z,13.70
2019-03-10T13:03:07.683Z,13.60
2019-03-10T13:05:36.762Z,13.90
2019-03-10T13:08:06.294Z,14.20
2019-03-10T13:10:35.650Z,14.40
2019-03-10T13:13:04.762Z,14.10
2019-03-10T13:15:33.988Z,13.90
2019-03-10T13:18:03.320Z,13.70
2019-03-10T13:20:34.086Z,13.50
2019-03-10T13:23:02.979Z,13.70
2019-03-10T13:25:31.976Z,13.60
2019-03-10T13:28:01.018Z,13.60
2019-03-10T13:30:30.012Z,13.60
2019-03-10T13:32:59.002Z,13.50
2019-03-10T13:35:28.099Z,13.60
2019-03-10T13:37:57.286Z,13.60
2019-03-10T13:40:26.392Z,13.70
2019-03-10T13:42:55.618Z,13.70
2019-03-10T13:45:24.716Z,13.70
2019-03-10T13:47:53.797Z,13.60
2019-03-10T13:50:23.285Z,13.70
2019-03-10T13:52:52.295Z,13.70
2019-03-10T13:55:21.365Z,13.60
2019-03-10T13:57:50.716Z,13.80
2019-03-10T14:00:22.466Z,14.10
2019-03-10T14:02:51.638Z,14.10
2019-03-10T14:05:20.777Z,14.00
2019-03-10T14:07:50.155Z,14.10
2019-03-10T14:10:19.387Z,14.30
2019-03-10T14:12:48.420Z,14.30
2019-03-10T14:15:17.615Z,14.30
2019-03-10T14:17:46.782Z,14.10
2019-03-10T14:20:21.485Z,14.00
2019-03-10T14:22:50.595Z,13.90
2019-03-10T14:25:19.694Z,13.90
2019-03-10T14:27:48.849Z,13.90
2019-03-10T14:30:18.112Z,14.00
2019-03-10T14:32:49.108Z,13.90
2019-03-10T14:35:18.192Z,13.90
2019-03-10T14:37:47.372Z,14.00
2019-03-10T14:40:17.072Z,14.00
2019-03-10T14:42:46.081Z,13.90
2019-03-10T14:45:15.211Z,13.90
2019-03-10T14:47:44.443Z,13.70
2019-03-10T14:50:14.087Z,13.60
2019-03-10T14:52:43.082Z,13.50
2019-03-10T14:55:12.657Z,13.40
2019-03-10T14:57:41.662Z,13.50
2019-03-10T15:00:14.176Z,13.40
2019-03-10T15:02:43.251Z,13.50
2019-03-10T15:05:12.344Z,13.60
2019-03-10T15:07:41.479Z,13.70
2019-03-10T15:10:10.803Z,13.60
2019-03-10T15:12:39.922Z,13.60
2019-03-10T15:15:09.585Z,13.50
2019-03-10T15:17:38.622Z,13.60
2019-03-10T15:20:08.750Z,13.60
2019-03-10T15:22:37.786Z,13.60
2019-03-10T15:25:08.027Z,13.50
2019-03-10T15:27:37.022Z,13.40
2019-03-10T15:30:07.393Z,13.30
2019-03-10T15:32:36.578Z,13.30
2019-03-10T15:35:06.614Z,13.20
2019-03-10T15:37:35.968Z,12.90
2019-03-10T15:40:05.717Z,12.60
2019-03-10T15:42:35.150Z,12.50
2019-03-10T15:45:04.993Z,12.60
2019-03-10T15:47:34.242Z,12.70
2019-03-10T15:50:03.556Z,12.70
2019-03-10T15:52:32.807Z,12.50
2019-03-10T15:55:02.094Z,12.30
2019-03-10T15:57:31.159Z,12.30
2019-03-10T16:00:00.398Z,12.50
2019-03-10T16:02:29.485Z,12.50
2019-03-10T16:04:58.692Z,12.50
2019-03-10T16:07:29.058Z,12.60
2019-03-10T16:09:58.304Z,12.60
2019-03-10T16:12:27.481Z,12.50
2019-03-10T16:14:56.729Z,12.40
2019-03-10T16:17:25.938Z,12.50
2019-03-10T16:19:55.189Z,12.60
2019-03-10T16:22:24.386Z,12.60
2019-03-10T16:24:53.649Z,12.50
2019-03-10T16:27:23.005Z,12.60
2019-03-10T16:29:52.135Z,12.60
2019-03-10T16:32:21.297Z,12.50
2019-03-10T16:34:50.608Z,12.40
2019-03-10T16:37:19.963Z,12.40
2019-03-10T16:39:49.149Z,12.30
2019-03-10T16:42:18.412Z,12.40
2019-03-10T16:44:47.669Z,12.40
2019-03-10T16:47:16.918Z,11.60
2019-03-10T16:49:47.911Z,10.40
2019-03-10T16:52:17.091Z,10.10
2019-03-10T16:54:46.332Z,9.90
2019-03-10T16:57:15.468Z,9.90
2019-03-10T16:59:44.543Z,9.70
2019-03-10T17:02:13.847Z,9.70
2019-03-10T17:04:42.992Z,9.70
2019-03-10T17:07:12.104Z,9.70
2019-03-10T17:09:41.161Z,9.80
2019-03-10T17:12:10.260Z,9.80
2019-03-10T17:14:39.530Z,9.80
2019-03-10T17:17:09.052Z,9.70
2019-03-10T17:19:38.397Z,9.70
2019-03-10T17:22:07.607Z,9.70
2019-03-10T17:24:36.820Z,9.70
2019-03-10T17:27:06.130Z,9.80
2019-03-10T17:29:35.775Z,10.00
2019-03-10T17:32:04.904Z,10.20
2019-03-10T17:34:33.939Z,10.30
2019-03-10T17:37:03.085Z,10.40
2019-03-10T17:39:32.170Z,10.40
2019-03-10T17:42:01.158Z,10.30
2019-03-10T17:44:40.416Z,10.30
2019-03-10T17:47:01.135Z,10.50
2019-03-10T17:49:30.199Z,10.40
2019-03-10T17:51:59.903Z,10.40
2019-03-10T17:54:28.943Z,10.50
2019-03-10T17:56:57.891Z,10.50
2019-03-10T17:59:29.632Z,10.50
2019-03-10T18:02:08.538Z,10.40
2019-03-10T18:04:29.423Z,10.50
2019-03-10T18:06:58.696Z,10.50
2019-03-10T18:09:28.169Z,10.50
2019-03-10T18:11:57.230Z,10.50
2019-03-10T18:14:26.259Z,10.30
2019-03-10T18:16:55.258Z,10.20
2019-03-10T18:19:24.326Z,10.20
2019-03-10T18:21:53.338Z,10.20
2019-03-10T18:24:22.362Z,10.20
2019-03-10T18:26:51.528Z,10.10
2019-03-10T18:29:20.500Z,10.10
2019-03-10T18:31:49.514Z,10.00
2019-03-10T18:34:18.505Z,10.00
2019-03-10T18:36:47.513Z,10.00
2019-03-10T18:39:16.638Z,10.00
2019-03-10T18:41:45.747Z,10.00
2019-03-10T18:44:14.840Z,10.00
2019-03-10T18:46:43.788Z,10.00
2019-03-10T18:49:12.811Z,9.80
2019-03-10T18:51:42.461Z,9.90
2019-03-10T18:54:11.511Z,9.90
2019-03-10T18:56:40.474Z,9.90
2019-03-10T18:59:09.563Z,9.80
2019-03-10T19:01:38.539Z,9.80
2019-03-10T19:04:07.455Z,9.80
2019-03-10T19:06:36.387Z,9.80
2019-03-10T19:09:07.235Z,9.80
2019-03-10T19:11:36.305Z,9.70
2019-03-10T19:14:05.602Z,9.70
2019-03-10T19:16:35.892Z,9.60
2019-03-10T19:19:05.227Z,9.60
2019-03-10T19:21:34.251Z,9.60
2019-03-10T19:24:04.015Z,9.60
2019-03-10T19:26:33.047Z,9.60
2019-03-10T19:29:02.428Z,9.50
2019-03-10T19:31:33.008Z,9.50
2019-03-10T19:34:02.218Z,9.50
2019-03-10T19:36:31.208Z,9.40
2019-03-10T19:39:00.246Z,9.40
2019-03-10T19:41:29.342Z,9.30
2019-03-10T19:43:58.399Z,9.30
2019-03-10T19:46:27.457Z,9.40
2019-03-10T19:48:56.581Z,9.30
2019-03-10T19:51:25.707Z,9.30
2019-03-10T19:53:55.246Z,9.30
2019-03-10T19:56:24.513Z,9.30
2019-03-10T19:58:53.585Z,9.30
2019-03-10T20:01:22.665Z,9.20
2019-03-10T20:03:51.642Z,9.10
2019-03-10T20:06:20.708Z,9.10
2019-03-10T20:08:49.759Z,9.10
2019-03-10T20:11:18.908Z,9.00
2019-03-10T20:13:47.853Z,8.90
2019-03-10T20:16:16.900Z,8.90
2019-03-10T20:18:46.182Z,8.90
2019-03-10T20:21:15.631Z,8.90
2019-03-10T20:23:44.682Z,8.90
2019-03-10T20:26:13.763Z,8.90
2019-03-10T20:28:42.800Z,9.00
2019-03-10T20:31:11.928Z,9.00
2019-03-10T20:33:41.010Z,9.00
2019-03-10T20:36:10.108Z,9.00
2019-03-10T20:38:39.167Z,9.00
2019-03-10T20:41:08.230Z,9.00
2019-03-10T20:43:37.339Z,9.00
2019-03-10T20:46:06.503Z,9.00
2019-03-10T20:48:35.540Z,9.00
2019-03-10T20:51:05.421Z,9.00
2019-03-10T20:53:34.772Z,8.90
2019-03-10T20:56:04.186Z,9.00
2019-03-10T20:58:34.988Z,8.90
2019-03-10T21:01:04.220Z,8.90
2019-03-10T21:03:33.181Z,8.90
2019-03-10T21:06:02.324Z,8.80
2019-03-10T21:08:31.635Z,8.60
2019-03-10T21:11:00.855Z,8.40
2019-03-10T21:13:29.957Z,8.30
2019-03-10T21:15:59.066Z,7.90
2019-03-10T21:18:28.106Z,7.60
2019-03-10T21:20:57.231Z,7.50
2019-03-10T21:23:26.192Z,7.50
2019-03-10T21:25:55.391Z,7.50
2019-03-10T21:28:24.502Z,7.50
2019-03-10T21:30:53.702Z,7.50
2019-03-10T21:33:27.400Z,7.30
2019-03-10T21:35:56.592Z,6.90
2019-03-10T21:38:25.686Z,6.50
2019-03-10T21:40:54.682Z,6.30
2019-03-10T21:43:23.823Z,6.20
2019-03-10T21:45:52.926Z,6.20
2019-03-10T21:48:21.999Z,6.20
2019-03-10T21:50:51.091Z,6.10
2019-03-10T21:53:20.233Z,6.00
2019-03-10T21:55:49.311Z,5.80
2019-03-10T21:58:18.303Z,5.70
2019-03-10T22:00:47.349Z,5.60
2019-03-10T22:03:16.291Z,5.40
2019-03-10T22:05:45.437Z,5.20
2019-03-10T22:08:16.464Z,5.10
2019-03-10T22:10:45.491Z,5.10
2019-03-10T22:13:17.611Z,5.10
2019-03-10T22:15:46.633Z,5.20
2019-03-10T22:18:15.683Z,5.20
2019-03-10T22:20:44.790Z,5.30
2019-03-10T22:23:13.746Z,5.30
2019-03-10T22:25:42.711Z,5.40
2019-03-10T22:28:11.698Z,5.40
2019-03-10T22:30:40.778Z,5.50
2019-03-10T22:33:09.823Z,5.50
2019-03-10T22:35:38.884Z,5.50
2019-03-10T22:38:07.879Z,5.50
2019-03-10T22:40:36.919Z,5.60
2019-03-10T22:43:05.965Z,5.60
2019-03-10T22:45:35.043Z,5.60
2019-03-10T22:48:04.297Z,5.60
2019-03-10T22:50:33.337Z,5.60
2019-03-10T22:53:02.286Z,5.70
2019-03-10T22:55:31.347Z,5.70
2019-03-10T22:58:00.360Z,5.70
2019-03-10T23:00:39.826Z,5.50
2019-03-10T23:03:08.938Z,5.20
2019-03-10T23:05:37.988Z,5.00
2019-03-10T23:08:07.154Z,4.80
2019-03-10T23:10:38.127Z,4.80
2019-03-10T23:13:07.224Z,4.80
2019-03-10T23:15:36.311Z,4.70
2019-03-10T23:18:06.074Z,4.60
2019-03-10T23:20:37.098Z,4.50
2019-03-10T23:23:09.112Z,4.40
2019-03-10T23:25:38.159Z,4.40
2019-03-10T23:28:07.189Z,4.40
